Time;durP1;ratioP1;P1;durP2;ratioP2;P2;SDS_P1;SDS_P2;PMS_P1;PMS_P2;Temp;Humidity;BMP_temperature;BMP_pressure;BME280_temperature;BME280_humidity;BME280_pressure;Samples;Min_cycle;Max_cycle;Signal;HPM_P1;HPM_P2
2022/08/09 00:01:08;;;;;;;3.35;3.00;;;;;;;;;;6217508;28;20054;-79
2022/08/09 00:04:16;;;;;;;4.38;3.45;;;;;;;;;;6218516;28;20050;-80
2022/08/09 00:07:35;;;;;;;3.42;2.95;;;;;;;;;;6215131;28;20045;-79
2022/08/09 00:10:45;;;;;;;4.20;3.30;;;;;;;;;;6215745;28;20139;-80
2022/08/09 00:13:48;;;;;;;5.10;3.58;;;;;;;;;;6215224;28;20125;-80
2022/08/09 00:16:49;;;;;;;4.93;3.40;;;;;;;;;;6215360;28;20057;-80
2022/08/09 00:19:53;;;;;;;5.35;3.80;;;;;;;;;;6224861;28;20140;-79
2022/08/09 00:22:55;;;;;;;4.45;3.63;;;;;;;;;;6231215;28;20072;-80
2022/08/09 00:25:56;;;;;;;5.65;3.95;;;;;;;;;;6215781;28;20049;-80
2022/08/09 00:29:05;;;;;;;4.25;3.70;;;;;;;;;;6210135;28;20140;-80
2022/08/09 00:32:13;;;;;;;6.97;3.97;;;;;;;;;;6212378;28;20507;-80
2022/08/09 00:35:27;;;;;;;5.75;3.88;;;;;;;;;;6217215;28;20045;-80
2022/08/09 00:38:44;;;;;;;4.88;3.80;;;;;;;;;;6227425;28;20049;-79
2022/08/09 00:41:45;;;;;;;4.57;3.43;;;;;;;;;;6217523;28;20069;-80
2022/08/09 00:45:08;;;;;;;4.32;3.67;;;;;;;;;;6223595;28;20054;-80
2022/08/09 00:48:17;;;;;;;6.35;3.75;;;;;;;;;;6213723;28;20053;-79
2022/08/09 00:51:20;;;;;;;;;;;;;;;;;;6228702;28;20419;-80
2022/08/09 00:54:22;;;;;;;5.85;3.88;;;;;;;;;;6214455;28;20136;-80
2022/08/09 00:57:35;;;;;;;4.78;4.32;;;;;;;;;;6209828;28;20145;-80
2022/08/09 01:00:42;;;;;;;3.63;3.33;;;;;;;;;;6210542;28;20049;-79
2022/08/09 01:03:58;;;;;;;4.72;4.03;;;;;;;;;;6212457;28;20534;-79
2022/08/09 01:07:19;;;;;;;4.18;3.58;;;;;;;;;;6212621;28;20493;-79
2022/08/09 01:10:52;;;;;;;5.22;3.72;;;;;;;;;;6213971;28;20056;-78
2022/08/09 01:14:12;;;;;;;4.53;3.75;;;;;;;;;;6227996;28;20050;-79
2022/08/09 01:17:24;;;;;;;6.82;3.70;;;;;;;;;;6212808;28;20046;-79
2022/08/09 01:20:47;;;;;;;4.22;3.45;;;;;;;;;;6206917;28;20381;-79
2022/08/09 01:23:56;;;;;;;4.35;3.80;;;;;;;;;;6219952;28;20041;-79
2022/08/09 01:27:07;;;;;;;5.70;3.80;;;;;;;;;;6227504;28;20050;-77
2022/08/09 01:30:10;;;;;;;4.90;3.88;;;;;;;;;;6228976;28;20044;-79
2022/08/09 01:33:37;;;;;;;4.95;4.07;;;;;;;;;;6206163;28;20049;-78
2022/08/09 01:36:40;;;;;;;6.60;3.95;;;;;;;;;;6226930;28;20135;-79
2022/08/09 01:39:44;;;;;;;5.03;3.88;;;;;;;;;;6225092;28;20069;-79
2022/08/09 01:42:49;;;;;;;5.65;4.03;;;;;;;;;;6213855;28;20136;-80
2022/08/09 01:45:54;;;;;;;5.55;4.40;;;;;;;;;;6221476;28;20042;-79
2022/08/09 01:49:05;;;;;;;9.02;5.03;;;;;;;;;;6215094;28;20053;-79
2022/08/09 01:52:14;;;;;;;5.85;4.38;;;;;;;;;;6213131;28;20050;-79
2022/08/09 01:55:19;;;;;;;4.43;3.85;;;;;;;;;;6213174;28;20049;-78
2022/08/09 01:58:22;;;;;;;7.47;4.30;;;;;;;;;;6214409;28;20133;-79
2022/08/09 02:01:25;;;;;;;6.80;4.60;;;;;;;;;;6214190;28;20052;-80
2022/08/09 02:04:48;;;;;;;7.07;4.57;;;;;;;;;;6223478;28;20565;-80
2022/08/09 02:07:59;;;;;;;4.60;3.65;;;;;;;;;;6213056;28;20084;-80
2022/08/09 02:11:21;;;;;;;6.00;4.47;;;;;;;;;;6210465;28;20079;-78
2022/08/09 02:14:26;;;;;;;6.18;4.15;;;;;;;;;;6212715;28;20050;-78
2022/08/09 02:17:30;;;;;;;7.13;4.00;;;;;;;;;;6213833;28;20056;-80
2022/08/09 02:21:01;;;;;;;6.85;4.45;;;;;;;;;;6211129;28;20030;-79
2022/08/09 02:24:08;;;;;;;4.75;3.70;;;;;;;;;;6227386;28;20045;-76
2022/08/09 02:27:11;;;;;;;6.47;4.82;;;;;;;;;;6225502;28;20045;-76
2022/08/09 02:30:19;;;;;;;6.40;4.63;;;;;;;;;;6226144;28;20678;-80
2022/08/09 02:33:29;;;;;;;8.30;5.20;;;;;;;;;;6212017;28;20046;-78
2022/08/09 02:36:53;;;;;;;6.07;4.55;;;;;;;;;;6216523;28;20049;-79
2022/08/09 02:39:59;;;;;;;6.82;5.00;;;;;;;;;;6211298;28;20135;-78
2022/08/09 02:43:07;;;;;;;6.03;4.72;;;;;;;;;;6211902;28;20052;-76
2022/08/09 02:46:16;;;;;;;6.28;5.20;;;;;;;;;;6208116;28;20049;-77
2022/08/09 02:49:18;;;;;;;6.90;4.78;;;;;;;;;;6211218;28;20557;-79
2022/08/09 02:52:38;;;;;;;5.32;4.25;;;;;;;;;;6209524;28;20516;-78
2022/08/09 02:55:44;;;;;;;5.13;3.73;;;;;;;;;;6209456;28;20481;-79
2022/08/09 02:59:02;;;;;;;6.38;4.22;;;;;;;;;;6210082;28;20453;-76
2022/08/09 03:02:06;;;;;;;4.97;4.00;;;;;;;;;;6211781;28;20493;-79
2022/08/09 03:05:13;;;;;;;4.28;3.88;;;;;;;;;;6223195;28;20046;-79
2022/08/09 03:08:19;;;;;;;4.72;4.22;;;;;;;;;;6225308;28;20169;-77
2022/08/09 03:11:25;;;;;;;7.22;4.28;;;;;;;;;;6208402;28;20038;-80
2022/08/09 03:14:47;;;;;;;5.57;4.32;;;;;;;;;;6208626;28;20042;-79
2022/08/09 03:17:50;;;;;;;5.70;4.83;;;;;;;;;;6209980;28;20042;-79
2022/08/09 03:20:59;;;;;;;5.90;4.35;;;;;;;;;;6210995;28;20054;-77
2022/08/09 03:24:01;;;;;;;4.82;4.25;;;;;;;;;;6211127;28;20073;-78
2022/08/09 03:27:08;;;;;;;6.55;5.30;;;;;;;;;;6229400;28;20046;-77
2022/08/09 03:30:12;;;;;;;6.90;5.72;;;;;;;;;;6211868;28;20128;-76
2022/08/09 03:33:31;;;;;;;7.72;5.53;;;;;;;;;;6211525;28;20045;-78
2022/08/09 03:36:54;;;;;;;7.70;4.97;;;;;;;;;;6212500;28;20045;-76
2022/08/09 03:40:00;;;;;;;7.70;5.78;;;;;;;;;;6214123;28;20042;-76
2022/08/09 03:43:05;;;;;;;7.63;5.38;;;;;;;;;;6213976;28;20056;-76
2022/08/09 03:46:07;;;;;;;6.60;5.25;;;;;;;;;;6212517;28;20521;-77
2022/08/09 03:49:29;;;;;;;7.50;5.50;;;;;;;;;;6211408;28;20057;-76
2022/08/09 03:52:39;;;;;;;5.88;4.78;;;;;;;;;;6199076;28;20436;-78
2022/08/09 03:55:42;;;;;;;6.95;5.00;;;;;;;;;;6227292;28;20184;-78
2022/08/09 03:58:45;;;;;;;6.95;5.15;;;;;;;;;;6214178;28;20069;-75
2022/08/09 04:01:52;;;;;;;7.63;5.55;;;;;;;;;;6211204;28;20053;-79
2022/08/09 04:04:59;;;;;;;6.40;5.20;;;;;;;;;;6213502;28;20038;-77
2022/08/09 04:08:07;;;;;;;5.93;5.00;;;;;;;;;;6228406;28;20068;-77
2022/08/09 04:11:10;;;;;;;7.90;5.50;;;;;;;;;;6228580;28;20156;-78
2022/08/09 04:14:11;;;;;;;6.40;5.60;;;;;;;;;;6213262;28;20402;-75
2022/08/09 04:17:34;;;;;;;6.13;4.23;;;;;;;;;;6211880;28;20492;-76
2022/08/09 04:20:37;;;;;;;5.05;4.38;;;;;;;;;;6228695;28;20042;-76
2022/08/09 04:23:39;;;;;;;6.22;4.60;;;;;;;;;;6212362;28;20050;-77
2022/08/09 04:26:54;;;;;;;5.55;4.57;;;;;;;;;;6213671;28;20041;-76
2022/08/09 04:29:56;;;;;;;6.82;5.00;;;;;;;;;;6213393;28;20073;-79
2022/08/09 04:32:59;;;;;;;6.25;5.18;;;;;;;;;;6228501;28;20527;-78
2022/08/09 04:36:01;;;;;;;10.98;6.72;;;;;;;;;;6223530;28;20500;-78
2022/08/09 04:39:07;;;;;;;18.58;9.73;;;;;;;;;;6214315;28;20049;-78
2022/08/09 04:42:09;;;;;;;14.02;9.38;;;;;;;;;;6214859;28;20137;-78
2022/08/09 04:45:16;;;;;;;12.63;7.50;;;;;;;;;;6215691;28;20041;-79
2022/08/09 04:48:21;;;;;;;7.70;6.00;;;;;;;;;;6216777;28;20046;-79
2022/08/09 04:51:34;;;;;;;6.10;5.30;;;;;;;;;;6231170;28;20050;-79
2022/08/09 04:54:37;;;;;;;8.82;5.38;;;;;;;;;;6215484;28;20072;-76
2022/08/09 04:57:39;;;;;;;8.40;5.40;;;;;;;;;;6213339;28;20505;-78
2022/08/09 05:01:01;;;;;;;7.88;5.22;;;;;;;;;;6213248;28;20044;-77
2022/08/09 05:04:04;;;;;;;9.15;6.13;;;;;;;;;;6216761;28;20501;-79
2022/08/09 05:07:05;;;;;;;7.15;6.13;;;;;;;;;;6214434;28;20720;-79
2022/08/09 05:10:19;;;;;;;9.93;7.03;;;;;;;;;;6214734;28;20049;-76
2022/08/09 05:13:20;;;;;;;8.48;6.53;;;;;;;;;;6216170;28;20790;-78
2022/08/09 05:16:27;;;;;;;8.80;6.65;;;;;;;;;;6229039;28;20053;-79
2022/08/09 05:19:32;;;;;;;7.88;6.10;;;;;;;;;;6215071;28;20037;-77
2022/08/09 05:22:49;;;;;;;7.93;5.90;;;;;;;;;;6214803;28;20050;-77
2022/08/09 05:26:10;;;;;;;7.50;5.65;;;;;;;;;;6224177;28;20041;-78
2022/08/09 05:29:26;;;;;;;9.25;5.60;;;;;;;;;;6212511;28;20053;-79
2022/08/09 05:32:32;;;;;;;6.53;5.28;;;;;;;;;;6227150;28;20042;-78
2022/08/09 05:35:35;;;;;;;7.93;5.32;;;;;;;;;;6212241;28;20057;-79
2022/08/09 05:38:50;;;;;;;6.50;5.35;;;;;;;;;;6210745;28;20065;-79
2022/08/09 05:41:52;;;;;;;8.93;5.82;;;;;;;;;;6213750;28;20113;-78
2022/08/09 05:44:55;;;;;;;8.90;5.40;;;;;;;;;;6202432;28;20080;-79
2022/08/09 05:47:57;;;;;;;6.65;5.40;;;;;;;;;;6212189;28;20050;-78
2022/08/09 05:51:01;;;;;;;8.90;5.55;;;;;;;;;;6210647;28;20046;-77
2022/08/09 05:54:23;;;;;;;8.80;5.32;;;;;;;;;;6211549;28;20528;-77
2022/08/09 05:57:25;;;;;;;10.50;5.30;;;;;;;;;;6227401;28;20085;-78
2022/08/09 06:00:46;;;;;;;9.38;5.57;;;;;;;;;;6210521;28;20057;-77
2022/08/09 06:03:50;;;;;;;7.38;4.90;;;;;;;;;;6198426;28;20367;-79
2022/08/09 06:06:59;;;;;;;8.85;5.35;;;;;;;;;;6222934;28;20113;-77
2022/08/09 06:10:03;;;;;;;9.43;5.25;;;;;;;;;;6212352;28;20062;-78
2022/08/09 06:13:06;;;;;;;10.02;5.40;;;;;;;;;;6210578;28;20618;-79
2022/08/09 06:16:21;;;;;;;9.63;5.18;;;;;;;;;;6210581;28;20157;-77
2022/08/09 06:19:22;;;;;;;10.93;4.80;;;;;;;;;;6210424;28;20135;-80
2022/08/09 06:22:28;;;;;;;13.55;5.57;;;;;;;;;;6226387;28;20034;-78
2022/08/09 06:25:30;;;;;;;11.40;5.18;;;;;;;;;;6191212;28;20054;-78
2022/08/09 06:28:34;;;;;;;18.13;5.15;;;;;;;;;;6212336;28;20061;-79
2022/08/09 06:31:37;;;;;;;16.80;6.47;;;;;;;;;;6211590;28;20057;-77
2022/08/09 06:34:59;;;;;;;11.85;4.97;;;;;;;;;;6212062;28;20524;-78
2022/08/09 06:38:01;;;;;;;20.88;5.45;;;;;;;;;;6209412;28;20099;-77
2022/08/09 06:41:07;;;;;;;18.40;5.45;;;;;;;;;;6212170;28;20504;-78
2022/08/09 06:44:20;;;;;;;21.25;5.82;;;;;;;;;;6208891;28;20436;-79
2022/08/09 06:47:24;;;;;;;17.92;4.55;;;;;;;;;;6226346;28;20495;-79
2022/08/09 06:50:30;;;;;;;16.92;5.30;;;;;;;;;;6217143;28;20077;-79
2022/08/09 06:53:32;;;;;;;12.55;5.03;;;;;;;;;;6198985;28;20042;-78
2022/08/09 06:56:39;;;;;;;11.50;5.38;;;;;;;;;;6211007;28;20053;-77
2022/08/09 06:59:46;;;;;;;7.78;4.28;;;;;;;;;;6216812;28;20049;-79
2022/08/09 07:03:07;;;;;;;10.38;4.40;;;;;;;;;;6225030;28;20606;-78
2022/08/09 07:06:11;;;;;;;11.27;4.07;;;;;;;;;;6238663;28;20056;-79
2022/08/09 07:09:15;;;;;;;8.60;3.90;;;;;;;;;;6224355;28;20509;-77
2022/08/09 07:12:36;;;;;;;11.50;3.70;;;;;;;;;;6225762;28;20259;-78
2022/08/09 07:15:41;;;;;;;11.40;3.97;;;;;;;;;;6225264;28;20066;-79
2022/08/09 07:19:03;;;;;;;12.13;3.95;;;;;;;;;;6223771;28;20451;-78
2022/08/09 07:22:06;;;;;;;9.32;3.55;;;;;;;;;;6239446;28;20057;-79
2022/08/09 07:25:11;;;;;;;5.50;3.15;;;;;;;;;;6221294;28;20189;-80
2022/08/09 07:28:16;;;;;;;4.80;2.95;;;;;;;;;;6236272;28;20512;-78
2022/08/09 07:31:28;;;;;;;5.60;3.08;;;;;;;;;;6238899;28;20115;-78
2022/08/09 07:34:38;;;;;;;4.25;3.00;;;;;;;;;;6218491;28;20074;-79
2022/08/09 07:37:42;;;;;;;3.15;2.80;;;;;;;;;;6232668;28;20054;-79
2022/08/09 07:40:46;;;;;;;4.50;2.95;;;;;;;;;;6221337;28;20050;-79
2022/08/09 07:44:08;;;;;;;4.30;3.10;;;;;;;;;;6217212;28;20420;-79
2022/08/09 07:47:12;;;;;;;3.40;3.03;;;;;;;;;;6230764;28;20460;-79
2022/08/09 07:50:17;;;;;;;3.50;2.92;;;;;;;;;;6233825;28;20085;-78
2022/08/09 07:53:34;;;;;;;3.22;2.90;;;;;;;;;;6216958;28;20056;-79
2022/08/09 07:56:56;;;;;;;4.40;2.80;;;;;;;;;;6219330;28;20042;-80
2022/08/09 07:59:59;;;;;;;3.67;2.80;;;;;;;;;;6219426;28;20054;-79
2022/08/09 08:03:12;;;;;;;4.53;2.90;;;;;;;;;;6228860;28;20050;-79
2022/08/09 08:06:14;;;;;;;3.22;2.92;;;;;;;;;;6219990;28;20050;-80
2022/08/09 08:09:21;;;;;;;4.05;3.00;;;;;;;;;;6218417;28;20062;-79
2022/08/09 08:12:43;;;;;;;4.40;2.75;;;;;;;;;;6229160;28;20081;-78
2022/08/09 08:15:47;;;;;;;5.05;3.13;;;;;;;;;;6224709;28;20065;-77
2022/08/09 08:18:50;;;;;;;3.42;2.95;;;;;;;;;;6214860;28;20053;-80
2022/08/09 08:21:51;;;;;;;3.83;2.83;;;;;;;;;;6214385;28;20190;-78
2022/08/09 08:24:56;;;;;;;3.80;2.80;;;;;;;;;;6229182;28;20042;-80
2022/08/09 08:27:58;;;;;;;4.07;2.60;;;;;;;;;;6214680;28;20125;-77
2022/08/09 08:31:01;;;;;;;5.18;2.78;;;;;;;;;;6213389;28;20046;-79
2022/08/09 08:34:14;;;;;;;2.70;2.50;;;;;;;;;;6211240;28;20467;-78
2022/08/09 08:37:21;;;;;;;4.22;3.30;;;;;;;;;;6225990;28;20270;-78
2022/08/09 08:40:25;;;;;;;4.20;2.90;;;;;;;;;;6213931;28;20046;-79
2022/08/09 08:43:30;;;;;;;4.82;2.67;;;;;;;;;;6206364;28;20061;-79
2022/08/09 08:46:33;;;;;;;;;;;;;;;;;;6212424;28;20046;-78
2022/08/09 08:49:42;;;;;;;3.50;2.67;;;;;;;;;;6212770;28;20731;-78
2022/08/09 08:52:51;;;;;;;6.72;2.80;;;;;;;;;;6202600;28;20416;-77
2022/08/09 08:56:01;;;;;;;3.85;2.70;;;;;;;;;;6216832;28;20041;-79
2022/08/09 08:59:11;;;;;;;3.08;2.50;;;;;;;;;;6177547;28;21169;-80
2022/08/09 09:02:25;;;;;;;2.63;2.42;;;;;;;;;;6215168;28;20082;-79
2022/08/09 09:05:32;;;;;;;4.18;2.60;;;;;;;;;;6210015;28;20046;-78
2022/08/09 09:08:55;;;;;;;4.10;2.80;;;;;;;;;;6207886;28;20509;-79
2022/08/09 09:12:01;;;;;;;2.50;2.30;;;;;;;;;;6211482;28;20400;-79
2022/08/09 09:15:03;;;;;;;;;;;;;;;;;;6226383;28;20104;-78
2022/08/09 09:18:13;;;;;;;3.42;2.72;;;;;;;;;;6212091;28;19922;-79
2022/08/09 09:21:17;;;;;;;3.70;2.60;;;;;;;;;;6226877;28;20520;-81
2022/08/09 09:24:29;;;;;;;3.92;2.50;;;;;;;;;;6212135;28;20049;-79
2022/08/09 09:27:32;;;;;;;3.42;2.35;;;;;;;;;;6212271;28;20149;-80
2022/08/09 09:30:56;;;;;;;2.90;2.60;;;;;;;;;;6210810;28;20080;-81
2022/08/09 09:34:12;;;;;;;2.58;2.13;;;;;;;;;;6214994;28;20501;-82
2022/08/09 09:37:26;;;;;;;5.05;2.47;;;;;;;;;;6215216;28;20308;-81
2022/08/09 09:40:43;;;;;;;3.25;2.30;;;;;;;;;;6215227;28;20125;-82
2022/08/09 09:43:46;;;;;;;2.20;1.88;;;;;;;;;;6209873;28;20149;-82
2022/08/09 09:47:15;;;;;;;2.47;2.20;;;;;;;;;;6213789;28;20403;-82
2022/08/09 09:50:21;;;;;;;2.30;2.10;;;;;;;;;;6217168;28;20045;-82
2022/08/09 09:53:26;;;;;;;2.33;2.13;;;;;;;;;;6229853;28;20548;-81
2022/08/09 09:56:49;;;;;;;2.55;1.90;;;;;;;;;;6225586;28;20042;-81
2022/08/09 10:00:22;;;;;;;3.03;2.03;;;;;;;;;;6222612;28;20049;-81
2022/08/09 10:03:58;;;;;;;1.80;1.70;;;;;;;;;;6215839;28;20046;-81
2022/08/09 10:07:04;;;;;;;3.83;2.15;;;;;;;;;;6206800;28;20092;-81
2022/08/09 10:10:10;;;;;;;1.95;1.80;;;;;;;;;;6229638;28;20042;-82
2022/08/09 10:13:12;;;;;;;4.40;2.20;;;;;;;;;;6214849;28;20069;-80
2022/08/09 10:16:36;;;;;;;1.73;1.40;;;;;;;;;;6213456;28;20051;-80
2022/08/09 10:19:58;;;;;;;2.20;1.95;;;;;;;;;;6212313;28;20417;-79
2022/08/09 10:23:15;;;;;;;3.08;1.95;;;;;;;;;;6212322;28;20739;-79
2022/08/09 10:26:22;;;;;;;3.13;2.28;;;;;;;;;;6213364;28;20045;-80
2022/08/09 10:29:25;;;;;;;4.28;1.65;;;;;;;;;;6217410;28;20053;-81
2022/08/09 10:32:47;;;;;;;2.42;1.60;;;;;;;;;;6202292;28;20523;-81
2022/08/09 10:35:51;;;;;;;2.25;1.70;;;;;;;;;;6211072;28;20050;-80
2022/08/09 10:38:53;;;;;;;1.67;1.58;;;;;;;;;;6217418;28;20092;-79
2022/08/09 10:42:00;;;;;;;2.28;1.80;;;;;;;;;;6227308;28;20045;-80
2022/08/09 10:45:07;;;;;;;2.70;1.75;;;;;;;;;;6215818;28;20050;-81
2022/08/09 10:48:35;;;;;;;3.17;1.77;;;;;;;;;;6216186;28;20045;-80
2022/08/09 10:51:40;;;;;;;2.20;1.70;;;;;;;;;;6216448;28;20520;-80
2022/08/09 10:54:42;;;;;;;3.20;1.80;;;;;;;;;;6216707;28;20065;-80
2022/08/09 10:57:44;;;;;;;3.85;1.73;;;;;;;;;;6217634;28;20120;-80
2022/08/09 11:00:52;;;;;;;4.53;1.80;;;;;;;;;;6231617;28;20173;-80
2022/08/09 11:04:25;;;;;;;2.42;1.77;;;;;;;;;;6217877;28;20136;-81
2022/08/09 11:07:32;;;;;;;3.20;1.77;;;;;;;;;;6216988;28;20045;-81
2022/08/09 11:10:54;;;;;;;1.83;1.60;;;;;;;;;;6232720;28;20058;-80
2022/08/09 11:14:30;;;;;;;2.30;1.77;;;;;;;;;;6216520;28;20037;-81
2022/08/09 11:17:35;;;;;;;2.00;1.80;;;;;;;;;;6216532;28;20489;-84
2022/08/09 11:20:46;;;;;;;3.15;1.73;;;;;;;;;;6222698;28;20044;-84
2022/08/09 11:24:00;;;;;;;1.90;1.80;;;;;;;;;;6221698;28;20048;-81
2022/08/09 11:27:31;;;;;;;2.88;1.83;;;;;;;;;;6216463;28;20073;-81
2022/08/09 11:30:53;;;;;;;1.98;1.77;;;;;;;;;;6216715;28;20127;-81
2022/08/09 11:33:56;;;;;;;2.00;1.80;;;;;;;;;;6220425;28;20773;-81
2022/08/09 11:37:00;;;;;;;3.25;1.52;;;;;;;;;;6232876;28;20073;-81
2022/08/09 11:40:05;;;;;;;3.00;1.98;;;;;;;;;;6231974;28;20038;-80
2022/08/09 11:43:07;;;;;;;3.97;1.98;;;;;;;;;;6219684;28;20046;-81
2022/08/09 11:46:11;;;;;;;1.80;1.70;;;;;;;;;;6216711;28;20048;-81
2022/08/09 11:49:58;;;;;;;1.88;1.50;;;;;;;;;;6232563;28;20424;-81
2022/08/09 11:53:19;;;;;;;2.83;1.70;;;;;;;;;;6218266;28;20068;-81
2022/08/09 11:56:41;;;;;;;1.88;1.70;;;;;;;;;;6218393;28;20048;-81
2022/08/09 11:59:49;;;;;;;4.20;1.92;;;;;;;;;;6229573;28;20289;-80
2022/08/09 12:02:55;;;;;;;3.75;1.60;;;;;;;;;;6232000;28;20034;-81
2022/08/09 12:06:01;;;;;;;5.25;1.80;;;;;;;;;;6217075;28;20037;-80
2022/08/09 12:09:08;;;;;;;1.65;1.50;;;;;;;;;;6216097;28;20045;-79
2022/08/09 12:12:21;;;;;;;3.72;1.83;;;;;;;;;;6233011;28;20073;-79
2022/08/09 12:15:32;;;;;;;2.55;1.67;;;;;;;;;;6217347;28;20042;-80
2022/08/09 12:18:52;;;;;;;1.67;1.52;;;;;;;;;;6214440;28;20050;-79
2022/08/09 12:21:59;;;;;;;4.15;2.05;;;;;;;;;;6215180;28;20408;-80
2022/08/09 12:25:12;;;;;;;2.88;1.75;;;;;;;;;;6212729;28;20082;-79
2022/08/09 12:28:20;;;;;;;2.55;1.77;;;;;;;;;;6216842;28;20114;-80
2022/08/09 12:31:44;;;;;;;2.15;1.65;;;;;;;;;;6216374;28;20496;-80
2022/08/09 12:35:05;;;;;;;1.83;1.40;;;;;;;;;;6216746;28;20042;-79
2022/08/09 12:38:18;;;;;;;1.90;1.50;;;;;;;;;;6214630;28;20420;-80
2022/08/09 12:41:39;;;;;;;3.08;1.80;;;;;;;;;;6216365;28;20042;-80
2022/08/09 12:44:42;;;;;;;2.65;1.70;;;;;;;;;;6215619;28;20040;-81
2022/08/09 12:47:53;;;;;;;2.13;1.70;;;;;;;;;;6216901;28;20582;-80
2022/08/09 12:50:56;;;;;;;1.60;1.50;;;;;;;;;;6215461;28;20534;-81
2022/08/09 12:54:00;;;;;;;2.00;1.55;;;;;;;;;;6215291;28;20041;-81
2022/08/09 12:57:02;;;;;;;1.63;1.52;;;;;;;;;;6213850;28;20041;-80
2022/08/09 13:00:23;;;;;;;1.50;1.40;;;;;;;;;;6214291;28;20065;-81
2022/08/09 13:03:34;;;;;;;1.90;1.70;;;;;;;;;;6216125;28;20050;-80
2022/08/09 13:06:55;;;;;;;1.83;1.52;;;;;;;;;;6213156;28;20045;-79
2022/08/09 13:10:03;;;;;;;1.95;1.40;;;;;;;;;;6214698;28;20050;-79
2022/08/09 13:13:05;;;;;;;2.78;1.55;;;;;;;;;;6214124;28;20046;-78
2022/08/09 13:16:14;;;;;;;3.22;1.60;;;;;;;;;;6226370;28;20652;-79
2022/08/09 13:19:38;;;;;;;2.40;1.52;;;;;;;;;;6228468;28;20057;-80
2022/08/09 13:23:00;;;;;;;2.88;1.67;;;;;;;;;;6212311;28;20153;-79
2022/08/09 13:26:44;;;;;;;2.97;1.80;;;;;;;;;;6214018;28;20054;-80
2022/08/09 13:29:53;;;;;;;2.58;1.50;;;;;;;;;;6212087;28;20624;-79
2022/08/09 13:33:22;;;;;;;2.40;1.58;;;;;;;;;;6212872;28;20040;-78
2022/08/09 13:36:25;;;;;;;2.20;1.48;;;;;;;;;;6202747;28;20041;-79
2022/08/09 13:39:43;;;;;;;3.25;1.60;;;;;;;;;;6211776;28;20140;-77
2022/08/09 13:43:05;;;;;;;2.83;1.60;;;;;;;;;;6211255;28;20057;-79
2022/08/09 13:46:10;;;;;;;2.33;1.63;;;;;;;;;;6213044;28;20069;-79
2022/08/09 13:49:34;;;;;;;2.35;1.65;;;;;;;;;;6213525;28;20111;-81
2022/08/09 13:52:52;;;;;;;3.13;1.73;;;;;;;;;;6211811;28;20052;-79
2022/08/09 13:55:53;;;;;;;;;;;;;;;;;;6212693;28;20116;-80
2022/08/09 13:58:55;;;;;;;1.60;1.50;;;;;;;;;;6213202;28;20011;-80
2022/08/09 14:01:56;;;;;;;;;;;;;;;;;;6212590;28;20054;-79
2022/08/09 14:05:02;;;;;;;4.13;2.13;;;;;;;;;;6212129;28;19928;-79
2022/08/09 14:08:05;;;;;;;2.75;1.45;;;;;;;;;;6224527;28;20156;-79
2022/08/09 14:11:11;;;;;;;3.05;1.50;;;;;;;;;;6211076;28;20050;-79
2022/08/09 14:14:17;;;;;;;1.95;1.58;;;;;;;;;;6210575;28;20041;-79
2022/08/09 14:17:28;;;;;;;1.97;1.73;;;;;;;;;;6211809;28;20042;-79
2022/08/09 14:20:49;;;;;;;3.22;1.77;;;;;;;;;;6202913;28;20433;-80
2022/08/09 14:23:53;;;;;;;1.58;1.48;;;;;;;;;;6226086;28;20851;-80
2022/08/09 14:26:59;;;;;;;1.77;1.42;;;;;;;;;;6207758;28;20141;-80
2022/08/09 14:30:01;;;;;;;3.90;1.60;;;;;;;;;;6221085;28;20473;-76
2022/08/09 14:33:23;;;;;;;1.55;1.45;;;;;;;;;;6207016;28;20504;-76
2022/08/09 14:36:26;;;;;;;5.35;1.70;;;;;;;;;;6206614;28;20641;-75
2022/08/09 14:39:41;;;;;;;2.65;1.98;;;;;;;;;;6206336;28;20132;-75
2022/08/09 14:42:49;;;;;;;2.70;1.58;;;;;;;;;;6204428;28;20087;-75
2022/08/09 14:45:50;;;;;;;;;;;;;;;;;;6219637;28;20053;-76
2022/08/09 14:49:12;;;;;;;3.45;1.63;;;;;;;;;;6211393;28;19929;-76
2022/08/09 14:52:16;;;;;;;1.80;1.40;;;;;;;;;;6207497;28;20498;-77
2022/08/09 14:55:18;;;;;;;3.30;1.75;;;;;;;;;;6211546;28;20196;-76
2022/08/09 14:58:21;;;;;;;1.60;1.50;;;;;;;;;;6205989;28;20045;-76
2022/08/09 15:01:23;;;;;;;2.47;1.60;;;;;;;;;;6221146;28;20042;-76
2022/08/09 15:04:26;;;;;;;3.55;1.67;;;;;;;;;;6224648;28;20049;-78
2022/08/09 15:07:27;;;;;;;4.75;1.85;;;;;;;;;;6217703;28;20570;-79
2022/08/09 15:10:36;;;;;;;2.00;1.90;;;;;;;;;;6201000;28;20788;-78
2022/08/09 15:13:38;;;;;;;3.13;1.80;;;;;;;;;;6199993;28;20127;-77
2022/08/09 15:16:59;;;;;;;2.63;1.90;;;;;;;;;;6209321;28;20050;-77
2022/08/09 15:20:06;;;;;;;3.25;2.10;;;;;;;;;;6211491;28;20050;-79
2022/08/09 15:23:12;;;;;;;2.97;1.80;;;;;;;;;;6225207;28;20131;-77
2022/08/09 15:26:34;;;;;;;1.90;1.80;;;;;;;;;;6224036;28;24217;-81
2022/08/09 15:29:35;;;;;;;2.50;1.88;;;;;;;;;;6226154;28;20121;-79
2022/08/09 15:32:57;;;;;;;2.00;1.70;;;;;;;;;;6210078;28;20054;-78
2022/08/09 15:35:59;;;;;;;4.78;2.00;;;;;;;;;;6212982;28;20042;-79
2022/08/09 15:39:02;;;;;;;5.70;2.03;;;;;;;;;;6206328;28;20073;-79
2022/08/09 15:42:04;;;;;;;8.90;2.20;;;;;;;;;;6227046;28;20127;-80
2022/08/09 15:45:08;;;;;;;3.35;1.90;;;;;;;;;;6206570;28;20050;-78
2022/08/09 15:48:10;;;;;;;3.78;1.77;;;;;;;;;;6211284;28;20046;-78
2022/08/09 15:51:29;;;;;;;2.05;1.80;;;;;;;;;;6228100;28;20123;-79
2022/08/09 15:54:50;;;;;;;1.80;1.70;;;;;;;;;;6212114;28;20107;-78
2022/08/09 15:57:52;;;;;;;3.70;1.90;;;;;;;;;;6212485;28;20125;-77
2022/08/09 16:00:54;;;;;;;1.77;1.67;;;;;;;;;;6210798;28;20058;-78
2022/08/09 16:03:57;;;;;;;2.22;1.80;;;;;;;;;;6226463;28;20100;-79
2022/08/09 16:06:59;;;;;;;2.85;1.75;;;;;;;;;;6210830;28;20117;-79
2022/08/09 16:10:06;;;;;;;2.75;2.10;;;;;;;;;;6211251;28;20193;-80
2022/08/09 16:13:17;;;;;;;3.25;1.75;;;;;;;;;;6209240;28;20408;-77
2022/08/09 16:16:39;;;;;;;2.08;1.90;;;;;;;;;;6210239;28;21067;-79
2022/08/09 16:19:46;;;;;;;2.88;1.92;;;;;;;;;;6222819;28;20076;-78
2022/08/09 16:23:04;;;;;;;3.60;2.10;;;;;;;;;;6196963;28;20443;-79
2022/08/09 16:26:06;;;;;;;2.58;2.00;;;;;;;;;;6211093;28;20057;-79
2022/08/09 16:29:20;;;;;;;3.10;2.00;;;;;;;;;;6209293;28;20149;-78
2022/08/09 16:35:58;;;;;;;2.15;2.05;;;;;;;;;;6210065;28;20038;-79
2022/08/09 16:39:09;;;;;;;2.28;2.00;;;;;;;;;;6215843;28;20077;-79
2022/08/09 16:42:11;;;;;;;2.65;2.28;;;;;;;;;;6216485;28;20054;-79
2022/08/09 16:45:18;;;;;;;3.85;2.40;;;;;;;;;;6214244;28;20137;-79
2022/08/09 16:48:21;;;;;;;3.17;2.45;;;;;;;;;;6214449;28;20105;-78
2022/08/09 16:51:46;;;;;;;4.28;2.30;;;;;;;;;;6226048;28;20053;-77
2022/08/09 16:54:55;;;;;;;3.35;2.33;;;;;;;;;;6211740;28;20042;-77
2022/08/09 16:57:57;;;;;;;2.53;2.13;;;;;;;;;;6213477;28;20101;-76
2022/08/09 17:01:10;;;;;;;2.75;2.30;;;;;;;;;;6224500;28;20188;-77
2022/08/09 17:04:12;;;;;;;3.22;2.20;;;;;;;;;;6212472;28;20053;-78
2022/08/09 17:07:26;;;;;;;2.45;1.90;;;;;;;;;;6212774;28;20042;-76
2022/08/09 17:10:48;;;;;;;3.88;2.50;;;;;;;;;;6215159;28;20053;-76
2022/08/09 17:13:52;;;;;;;2.70;2.00;;;;;;;;;;6212849;28;20623;-77
2022/08/09 17:17:03;;;;;;;2.70;2.45;;;;;;;;;;6223129;28;20056;-76
2022/08/09 17:20:25;;;;;;;;;;;;;;;;;;6212747;28;20046;-76
2022/08/09 17:23:34;;;;;;;3.38;2.10;;;;;;;;;;6214300;28;20329;-79
2022/08/09 17:26:56;;;;;;;2.90;2.38;;;;;;;;;;6214425;28;20057;-79
2022/08/09 17:30:00;;;;;;;3.47;2.40;;;;;;;;;;6224147;28;20069;-77
2022/08/09 17:33:13;;;;;;;4.60;2.40;;;;;;;;;;6225715;28;20137;-78
2022/08/09 17:36:23;;;;;;;4.55;2.53;;;;;;;;;;6210985;28;20132;-76
2022/08/09 17:39:26;;;;;;;5.32;2.63;;;;;;;;;;6209346;28;20053;-77
2022/08/09 17:42:48;;;;;;;3.72;2.40;;;;;;;;;;6210005;28;20131;-75
2022/08/09 17:45:56;;;;;;;4.25;2.60;;;;;;;;;;6205256;28;20042;-75
2022/08/09 17:49:07;;;;;;;5.95;2.60;;;;;;;;;;6208502;28;20042;-76
2022/08/09 17:52:10;;;;;;;3.28;2.47;;;;;;;;;;6210235;28;20057;-78
2022/08/09 17:55:23;;;;;;;3.13;2.25;;;;;;;;;;6210531;28;20041;-77
2022/08/09 17:58:44;;;;;;;2.78;2.58;;;;;;;;;;6224415;28;20121;-78
2022/08/09 18:01:48;;;;;;;3.00;2.40;;;;;;;;;;6222005;28;20176;-76
2022/08/09 18:05:10;;;;;;;3.70;2.35;;;;;;;;;;6208882;28;20148;-77
2022/08/09 18:08:13;;;;;;;2.70;2.50;;;;;;;;;;6223646;28;20053;-77
2022/08/09 18:11:17;;;;;;;4.55;2.40;;;;;;;;;;6205965;28;20180;-77
2022/08/09 18:14:25;;;;;;;3.78;2.60;;;;;;;;;;6222916;28;20413;-77
2022/08/09 18:17:28;;;;;;;2.78;2.53;;;;;;;;;;6210380;28;20497;-77
2022/08/09 18:20:50;;;;;;;3.53;2.35;;;;;;;;;;6213784;28;20085;-76
2022/08/09 18:24:19;;;;;;;3.20;2.40;;;;;;;;;;6206568;28;20192;-76
2022/08/09 18:27:28;;;;;;;2.70;2.38;;;;;;;;;;6208884;28;20460;-77
2022/08/09 18:30:49;;;;;;;2.95;2.50;;;;;;;;;;6219090;28;20153;-77
2022/08/09 18:33:51;;;;;;;4.03;2.60;;;;;;;;;;6225409;28;20232;-77
2022/08/09 18:36:54;;;;;;;2.80;2.50;;;;;;;;;;6207289;28;20520;-79
2022/08/09 18:39:56;;;;;;;3.60;2.63;;;;;;;;;;6207541;28;20088;-77
2022/08/09 18:42:58;;;;;;;3.08;2.33;;;;;;;;;;6206648;28;20046;-77
2022/08/09 18:46:00;;;;;;;2.92;2.55;;;;;;;;;;6206752;28;20041;-76
2022/08/09 18:49:22;;;;;;;2.95;2.47;;;;;;;;;;6204217;28;20436;-75
2022/08/09 18:52:24;;;;;;;3.40;2.92;;;;;;;;;;6209164;28;20113;-78
2022/08/09 18:55:35;;;;;;;2.80;2.42;;;;;;;;;;6228538;28;20034;-77
2022/08/09 18:58:57;;;;;;;2.75;2.42;;;;;;;;;;6212574;28;20049;-76
2022/08/09 19:02:02;;;;;;;3.33;2.60;;;;;;;;;;6213593;28;20038;-76